sensor_id;sensor_type;location;lat;lon;timestamp;P1;durP1;ratioP1;P2;durP2;ratioP2
33279;SDS011;20403;43.114;12.434;2023-01-23T00:00:37;36.95;;;17.25;;
33279;SDS011;20403;43.114;12.434;2023-01-23T00:03:03;21.05;;;9.43;;
33279;SDS011;20403;43.114;12.434;2023-01-23T00:05:29;7.45;;;4.07;;
33279;SDS011;20403;43.114;12.434;2023-01-23T00:07:54;5.03;;;2.33;;
33279;SDS011;20403;43.114;12.434;2023-01-23T00:10:20;2.85;;;1.30;;
33279;SDS011;20403;43.114;12.434;2023-01-23T00:12:45;1.08;;;0.50;;
33279;SDS011;20403;43.114;12.434;2023-01-23T00:15:13;1.52;;;0.85;;
33279;SDS011;20403;43.114;12.434;2023-01-23T00:17:39;4.25;;;1.85;;
33279;SDS011;20403;43.114;12.434;2023-01-23T00:20:06;1.15;;;0.70;;
33279;SDS011;20403;43.114;12.434;2023-01-23T00:22:35;2.40;;;0.80;;
33279;SDS011;20403;43.114;12.434;2023-01-23T00:25:00;1.60;;;0.80;;
33279;SDS011;20403;43.114;12.434;2023-01-23T00:27:26;1.13;;;0.60;;
33279;SDS011;20403;43.114;12.434;2023-01-23T00:29:52;4.68;;;0.95;;
33279;SDS011;20403;43.114;12.434;2023-01-23T00:32:17;2.50;;;1.13;;
33279;SDS011;20403;43.114;12.434;2023-01-23T00:34:43;4.15;;;1.80;;
33279;SDS011;20403;43.114;12.434;2023-01-23T00:37:09;3.05;;;1.23;;
33279;SDS011;20403;43.114;12.434;2023-01-23T00:39:35;1.52;;;0.93;;
33279;SDS011;20403;43.114;12.434;2023-01-23T00:42:00;5.45;;;2.13;;
33279;SDS011;20403;43.114;12.434;2023-01-23T00:44:26;4.47;;;1.60;;
33279;SDS011;20403;43.114;12.434;2023-01-23T00:46:51;1.92;;;1.20;;
33279;SDS011;20403;43.114;12.434;2023-01-23T00:49:16;2.70;;;0.88;;
33279;SDS011;20403;43.114;12.434;2023-01-23T00:51:42;0.65;;;0.47;;
33279;SDS011;20403;43.114;12.434;2023-01-23T00:54:08;0.47;;;0.20;;
33279;SDS011;20403;43.114;12.434;2023-01-23T00:56:34;1.23;;;0.40;;
33279;SDS011;20403;43.114;12.434;2023-01-23T00:58:59;0.13;;;0.13;;
33279;SDS011;20403;43.114;12.434;2023-01-23T01:01:25;0.45;;;0.20;;
33279;SDS011;20403;43.114;12.434;2023-01-23T01:03:51;0.10;;;0.10;;
33279;SDS011;20403;43.114;12.434;2023-01-23T01:06:17;0.28;;;0.20;;
33279;SDS011;20403;43.114;12.434;2023-01-23T01:08:42;0.45;;;0.25;;
33279;SDS011;20403;43.114;12.434;2023-01-23T01:11:08;0.85;;;0.20;;
33279;SDS011;20403;43.114;12.434;2023-01-23T01:13:34;0.38;;;0.20;;
33279;SDS011;20403;43.114;12.434;2023-01-23T01:15:59;0.10;;;0.10;;
33279;SDS011;20403;43.114;12.434;2023-01-23T01:18:26;0.57;;;0.20;;
33279;SDS011;20403;43.114;12.434;2023-01-23T01:20:53;0.13;;;0.10;;
33279;SDS011;20403;43.114;12.434;2023-01-23T01:23:19;0.10;;;0.10;;
33279;SDS011;20403;43.114;12.434;2023-01-23T01:25:44;0.10;;;0.10;;
33279;SDS011;20403;43.114;12.434;2023-01-23T01:28:10;0.10;;;0.10;;
33279;SDS011;20403;43.114;12.434;2023-01-23T01:30:35;0.55;;;0.20;;
33279;SDS011;20403;43.114;12.434;2023-01-23T01:33:01;0.73;;;0.30;;
33279;SDS011;20403;43.114;12.434;2023-01-23T01:35:26;1.75;;;0.25;;
33279;SDS011;20403;43.114;12.434;2023-01-23T01:37:52;0.20;;;0.20;;
33279;SDS011;20403;43.114;12.434;2023-01-23T01:40:19;0.95;;;0.20;;
33279;SDS011;20403;43.114;12.434;2023-01-23T01:42:47;0.57;;;0.20;;
33279;SDS011;20403;43.114;12.434;2023-01-23T01:48:23;0.73;;;0.30;;
33279;SDS011;20403;43.114;12.434;2023-01-23T01:50:50;0.98;;;0.30;;
33279;SDS011;20403;43.114;12.434;2023-01-23T01:53:16;0.30;;;0.30;;
33279;SDS011;20403;43.114;12.434;2023-01-23T01:55:42;0.40;;;0.30;;
33279;SDS011;20403;43.114;12.434;2023-01-23T01:58:08;0.10;;;0.10;;
33279;SDS011;20403;43.114;12.434;2023-01-23T02:00:33;0.25;;;0.17;;
33279;SDS011;20403;43.114;12.434;2023-01-23T02:03:00;0.20;;;0.20;;
33279;SDS011;20403;43.114;12.434;2023-01-23T02:10:37;0.30;;;0.22;;
33279;SDS011;20403;43.114;12.434;2023-01-23T02:16:05;2.70;;;0.13;;
33279;SDS011;20403;43.114;12.434;2023-01-23T02:18:37;0.20;;;0.20;;
33279;SDS011;20403;43.114;12.434;2023-01-23T02:21:09;0.63;;;0.30;;
33279;SDS011;20403;43.114;12.434;2023-01-23T02:23:43;0.10;;;0.10;;
33279;SDS011;20403;43.114;12.434;2023-01-23T02:26:21;0.20;;;0.17;;
33279;SDS011;20403;43.114;12.434;2023-01-23T02:28:51;0.10;;;0.10;;
33279;SDS011;20403;43.114;12.434;2023-01-23T02:31:17;0.20;;;0.20;;
33279;SDS011;20403;43.114;12.434;2023-01-23T02:33:47;0.20;;;0.10;;
33279;SDS011;20403;43.114;12.434;2023-01-23T02:38:48;0.30;;;0.20;;
33279;SDS011;20403;43.114;12.434;2023-01-23T02:41:22;0.20;;;0.10;;
33279;SDS011;20403;43.114;12.434;2023-01-23T02:43:53;0.10;;;0.10;;
33279;SDS011;20403;43.114;12.434;2023-01-23T02:46:22;0.50;;;0.10;;
33279;SDS011;20403;43.114;12.434;2023-01-23T02:48:47;2.25;;;2.13;;
33279;SDS011;20403;43.114;12.434;2023-01-23T02:51:13;0.40;;;0.30;;
33279;SDS011;20403;43.114;12.434;2023-01-23T02:53:41;0.15;;;0.13;;
33279;SDS011;20403;43.114;12.434;2023-01-23T02:56:06;0.20;;;0.20;;
33279;SDS011;20403;43.114;12.434;2023-01-23T02:58:32;0.38;;;0.05;;
33279;SDS011;20403;43.114;12.434;2023-01-23T03:01:17;0.10;;;0.10;;
33279;SDS011;20403;43.114;12.434;2023-01-23T03:03:43;0.10;;;0.10;;
33279;SDS011;20403;43.114;12.434;2023-01-23T03:06:09;0.38;;;0.20;;
33279;SDS011;20403;43.114;12.434;2023-01-23T03:08:34;0.15;;;0.10;;
33279;SDS011;20403;43.114;12.434;2023-01-23T03:11:11;0.10;;;0.10;;
33279;SDS011;20403;43.114;12.434;2023-01-23T03:13:36;0.20;;;0.10;;
33279;SDS011;20403;43.114;12.434;2023-01-23T03:16:02;0.88;;;0.13;;
33279;SDS011;20403;43.114;12.434;2023-01-23T03:18:27;0.10;;;0.10;;
33279;SDS011;20403;43.114;12.434;2023-01-23T03:20:54;0.03;;;0.03;;
33279;SDS011;20403;43.114;12.434;2023-01-23T03:23:20;0.13;;;0.10;;
33279;SDS011;20403;43.114;12.434;2023-01-23T03:25:45;0.10;;;0.10;;
33279;SDS011;20403;43.114;12.434;2023-01-23T03:28:12;0.00;;;0.00;;
33279;SDS011;20403;43.114;12.434;2023-01-23T03:30:57;0.10;;;0.10;;
33279;SDS011;20403;43.114;12.434;2023-01-23T03:33:22;0.70;;;0.15;;
33279;SDS011;20403;43.114;12.434;2023-01-23T03:35:48;0.10;;;0.10;;
33279;SDS011;20403;43.114;12.434;2023-01-23T03:38:14;0.10;;;0.10;;
33279;SDS011;20403;43.114;12.434;2023-01-23T03:40:42;0.10;;;0.10;;
33279;SDS011;20403;43.114;12.434;2023-01-23T03:43:29;0.40;;;0.17;;
33279;SDS011;20403;43.114;12.434;2023-01-23T03:45:55;0.10;;;0.10;;
33279;SDS011;20403;43.114;12.434;2023-01-23T03:48:21;0.10;;;0.10;;
33279;SDS011;20403;43.114;12.434;2023-01-23T03:50:46;0.10;;;0.10;;
33279;SDS011;20403;43.114;12.434;2023-01-23T03:53:12;0.13;;;0.13;;
33279;SDS011;20403;43.114;12.434;2023-01-23T03:55:37;0.20;;;0.10;;
33279;SDS011;20403;43.114;12.434;2023-01-23T03:58:02;0.15;;;0.10;;
33279;SDS011;20403;43.114;12.434;2023-01-23T04:00:28;0.10;;;0.10;;
33279;SDS011;20403;43.114;12.434;2023-01-23T04:02:53;0.10;;;0.10;;
33279;SDS011;20403;43.114;12.434;2023-01-23T04:05:18;0.40;;;0.20;;
33279;SDS011;20403;43.114;12.434;2023-01-23T04:07:44;0.00;;;0.00;;
33279;SDS011;20403;43.114;12.434;2023-01-23T04:10:09;0.10;;;0.10;;
33279;SDS011;20403;43.114;12.434;2023-01-23T04:12:35;0.22;;;0.10;;
33279;SDS011;20403;43.114;12.434;2023-01-23T04:15:00;0.10;;;0.10;;
33279;SDS011;20403;43.114;12.434;2023-01-23T04:17:25;0.10;;;0.10;;
33279;SDS011;20403;43.114;12.434;2023-01-23T04:19:51;0.10;;;0.10;;
33279;SDS011;20403;43.114;12.434;2023-01-23T04:22:16;0.10;;;0.10;;
33279;SDS011;20403;43.114;12.434;2023-01-23T04:24:41;0.00;;;0.00;;
33279;SDS011;20403;43.114;12.434;2023-01-23T04:27:07;0.10;;;0.10;;
33279;SDS011;20403;43.114;12.434;2023-01-23T04:29:32;0.22;;;0.10;;
33279;SDS011;20403;43.114;12.434;2023-01-23T04:31:58;0.10;;;0.10;;
33279;SDS011;20403;43.114;12.434;2023-01-23T04:34:23;0.10;;;0.10;;
33279;SDS011;20403;43.114;12.434;2023-01-23T04:36:48;0.40;;;0.10;;
33279;SDS011;20403;43.114;12.434;2023-01-23T04:39:14;0.10;;;0.10;;
33279;SDS011;20403;43.114;12.434;2023-01-23T04:41:39;0.85;;;0.10;;
33279;SDS011;20403;43.114;12.434;2023-01-23T04:44:04;0.20;;;0.20;;
33279;SDS011;20403;43.114;12.434;2023-01-23T04:46:46;0.22;;;0.20;;
33279;SDS011;20403;43.114;12.434;2023-01-23T04:49:13;0.10;;;0.10;;
33279;SDS011;20403;43.114;12.434;2023-01-23T04:51:39;0.20;;;0.20;;
33279;SDS011;20403;43.114;12.434;2023-01-23T04:54:04;0.47;;;0.43;;
33279;SDS011;20403;43.114;12.434;2023-01-23T04:56:30;0.10;;;0.10;;
33279;SDS011;20403;43.114;12.434;2023-01-23T04:58:56;0.10;;;0.10;;
33279;SDS011;20403;43.114;12.434;2023-01-23T05:01:22;0.10;;;0.10;;
33279;SDS011;20403;43.114;12.434;2023-01-23T05:03:51;0.10;;;0.10;;
33279;SDS011;20403;43.114;12.434;2023-01-23T05:06:17;0.10;;;0.10;;
33279;SDS011;20403;43.114;12.434;2023-01-23T05:08:42;0.20;;;0.13;;
33279;SDS011;20403;43.114;12.434;2023-01-23T05:11:08;0.10;;;0.10;;
33279;SDS011;20403;43.114;12.434;2023-01-23T05:13:33;0.10;;;0.10;;
33279;SDS011;20403;43.114;12.434;2023-01-23T05:15:59;0.17;;;0.10;;
33279;SDS011;20403;43.114;12.434;2023-01-23T05:18:24;0.13;;;0.10;;
33279;SDS011;20403;43.114;12.434;2023-01-23T05:20:50;2.72;;;0.30;;
33279;SDS011;20403;43.114;12.434;2023-01-23T05:23:15;0.25;;;0.10;;
33279;SDS011;20403;43.114;12.434;2023-01-23T05:25:41;0.10;;;0.10;;
33279;SDS011;20403;43.114;12.434;2023-01-23T05:28:07;0.00;;;0.00;;
33279;SDS011;20403;43.114;12.434;2023-01-23T05:30:32;0.10;;;0.10;;
33279;SDS011;20403;43.114;12.434;2023-01-23T05:32:57;0.25;;;0.10;;
33279;SDS011;20403;43.114;12.434;2023-01-23T05:35:23;0.90;;;0.10;;
33279;SDS011;20403;43.114;12.434;2023-01-23T05:37:49;0.20;;;0.20;;
33279;SDS011;20403;43.114;12.434;2023-01-23T05:40:15;0.38;;;0.20;;
33279;SDS011;20403;43.114;12.434;2023-01-23T05:42:41;0.10;;;0.10;;
33279;SDS011;20403;43.114;12.434;2023-01-23T05:45:07;0.10;;;0.10;;
33279;SDS011;20403;43.114;12.434;2023-01-23T05:47:33;0.10;;;0.10;;
33279;SDS011;20403;43.114;12.434;2023-01-23T05:49:58;0.10;;;0.10;;
33279;SDS011;20403;43.114;12.434;2023-01-23T05:52:25;0.17;;;0.10;;
33279;SDS011;20403;43.114;12.434;2023-01-23T05:54:51;0.20;;;0.10;;
33279;SDS011;20403;43.114;12.434;2023-01-23T05:57:16;0.30;;;0.20;;
33279;SDS011;20403;43.114;12.434;2023-01-23T05:59:41;0.20;;;0.10;;
33279;SDS011;20403;43.114;12.434;2023-01-23T06:02:07;0.30;;;0.20;;
33279;SDS011;20403;43.114;12.434;2023-01-23T06:04:32;0.10;;;0.10;;
33279;SDS011;20403;43.114;12.434;2023-01-23T06:06:58;0.10;;;0.10;;
33279;SDS011;20403;43.114;12.434;2023-01-23T06:09:23;0.47;;;0.10;;
33279;SDS011;20403;43.114;12.434;2023-01-23T06:11:49;0.20;;;0.20;;
33279;SDS011;20403;43.114;12.434;2023-01-23T06:14:14;0.40;;;0.30;;
33279;SDS011;20403;43.114;12.434;2023-01-23T06:16:39;2.70;;;0.50;;
33279;SDS011;20403;43.114;12.434;2023-01-23T06:19:05;0.10;;;0.10;;
33279;SDS011;20403;43.114;12.434;2023-01-23T06:21:30;0.20;;;0.20;;
33279;SDS011;20403;43.114;12.434;2023-01-23T06:23:58;1.85;;;0.30;;
33279;SDS011;20403;43.114;12.434;2023-01-23T06:26:23;0.20;;;0.20;;
33279;SDS011;20403;43.114;12.434;2023-01-23T06:28:49;0.28;;;0.10;;
33279;SDS011;20403;43.114;12.434;2023-01-23T06:31:15;0.13;;;0.10;;
33279;SDS011;20403;43.114;12.434;2023-01-23T06:33:40;0.30;;;0.20;;
33279;SDS011;20403;43.114;12.434;2023-01-23T06:36:06;0.30;;;0.30;;
33279;SDS011;20403;43.114;12.434;2023-01-23T06:38:31;0.52;;;0.40;;
33279;SDS011;20403;43.114;12.434;2023-01-23T06:40:57;1.13;;;0.20;;
33279;SDS011;20403;43.114;12.434;2023-01-23T06:43:23;0.35;;;0.30;;
33279;SDS011;20403;43.114;12.434;2023-01-23T06:45:49;0.45;;;0.22;;
33279;SDS011;20403;43.114;12.434;2023-01-23T06:48:15;4.03;;;0.35;;
33279;SDS011;20403;43.114;12.434;2023-01-23T06:50:41;1.17;;;0.30;;
33279;SDS011;20403;43.114;12.434;2023-01-23T06:53:08;0.30;;;0.30;;
33279;SDS011;20403;43.114;12.434;2023-01-23T06:55:36;1.23;;;0.43;;
33279;SDS011;20403;43.114;12.434;2023-01-23T06:58:01;1.70;;;0.40;;
33279;SDS011;20403;43.114;12.434;2023-01-23T07:00:27;0.63;;;0.40;;
33279;SDS011;20403;43.114;12.434;2023-01-23T07:02:53;0.57;;;0.40;;
33279;SDS011;20403;43.114;12.434;2023-01-23T07:05:22;0.40;;;0.30;;
33279;SDS011;20403;43.114;12.434;2023-01-23T07:07:49;1.15;;;0.50;;
33279;SDS011;20403;43.114;12.434;2023-01-23T07:10:15;1.23;;;0.40;;
33279;SDS011;20403;43.114;12.434;2023-01-23T07:12:40;0.68;;;0.40;;
33279;SDS011;20403;43.114;12.434;2023-01-23T07:15:06;1.65;;;1.00;;
33279;SDS011;20403;43.114;12.434;2023-01-23T07:17:32;1.60;;;0.73;;
33279;SDS011;20403;43.114;12.434;2023-01-23T07:19:57;1.45;;;0.55;;
33279;SDS011;20403;43.114;12.434;2023-01-23T07:22:22;1.20;;;0.50;;
33279;SDS011;20403;43.114;12.434;2023-01-23T07:24:48;1.92;;;0.70;;
33279;SDS011;20403;43.114;12.434;2023-01-23T07:27:13;2.70;;;0.60;;
33279;SDS011;20403;43.114;12.434;2023-01-23T07:29:40;1.38;;;0.60;;
33279;SDS011;20403;43.114;12.434;2023-01-23T07:32:06;1.65;;;1.05;;
33279;SDS011;20403;43.114;12.434;2023-01-23T07:34:31;1.60;;;0.80;;
33279;SDS011;20403;43.114;12.434;2023-01-23T07:36:57;3.00;;;0.77;;
33279;SDS011;20403;43.114;12.434;2023-01-23T07:39:22;1.65;;;0.70;;
33279;SDS011;20403;43.114;12.434;2023-01-23T07:41:48;4.05;;;0.90;;
33279;SDS011;20403;43.114;12.434;2023-01-23T07:44:15;1.77;;;0.93;;
33279;SDS011;20403;43.114;12.434;2023-01-23T07:46:42;1.75;;;0.70;;
33279;SDS011;20403;43.114;12.434;2023-01-23T07:49:08;2.55;;;0.68;;
33279;SDS011;20403;43.114;12.434;2023-01-23T07:51:34;1.10;;;0.80;;
33279;SDS011;20403;43.114;12.434;2023-01-23T07:53:59;0.93;;;0.57;;
33279;SDS011;20403;43.114;12.434;2023-01-23T07:56:25;1.15;;;0.70;;
33279;SDS011;20403;43.114;12.434;2023-01-23T07:58:50;1.70;;;0.82;;
33279;SDS011;20403;43.114;12.434;2023-01-23T08:01:16;11.93;;;1.77;;
33279;SDS011;20403;43.114;12.434;2023-01-23T08:03:43;1.50;;;1.13;;
33279;SDS011;20403;43.114;12.434;2023-01-23T08:06:08;1.60;;;0.60;;
33279;SDS011;20403;43.114;12.434;2023-01-23T08:08:34;1.83;;;0.70;;
33279;SDS011;20403;43.114;12.434;2023-01-23T08:11:02;2.85;;;1.30;;
33279;SDS011;20403;43.114;12.434;2023-01-23T08:13:28;1.73;;;0.30;;
33279;SDS011;20403;43.114;12.434;2023-01-23T08:15:53;0.77;;;0.50;;
33279;SDS011;20403;43.114;12.434;2023-01-23T08:18:20;13.95;;;2.40;;
33279;SDS011;20403;43.114;12.434;2023-01-23T08:20:51;1.60;;;0.57;;
33279;SDS011;20403;43.114;12.434;2023-01-23T08:23:17;3.40;;;1.25;;
33279;SDS011;20403;43.114;12.434;2023-01-23T08:25:42;0.82;;;0.50;;
33279;SDS011;20403;43.114;12.434;2023-01-23T08:28:08;4.57;;;1.58;;
33279;SDS011;20403;43.114;12.434;2023-01-23T08:30:36;9.05;;;3.05;;
33279;SDS011;20403;43.114;12.434;2023-01-23T08:33:01;6.55;;;1.77;;
33279;SDS011;20403;43.114;12.434;2023-01-23T08:35:28;0.82;;;0.50;;
33279;SDS011;20403;43.114;12.434;2023-01-23T08:37:54;3.90;;;1.50;;
33279;SDS011;20403;43.114;12.434;2023-01-23T08:40:20;2.10;;;1.00;;
33279;SDS011;20403;43.114;12.434;2023-01-23T08:42:45;6.43;;;2.13;;
33279;SDS011;20403;43.114;12.434;2023-01-23T08:45:10;2.85;;;1.52;;
33279;SDS011;20403;43.114;12.434;2023-01-23T08:47:36;2.75;;;1.52;;
33279;SDS011;20403;43.114;12.434;2023-01-23T08:50:02;2.38;;;2.13;;
33279;SDS011;20403;43.114;12.434;2023-01-23T08:52:29;4.47;;;1.20;;
33279;SDS011;20403;43.114;12.434;2023-01-23T08:54:55;7.00;;;2.30;;
33279;SDS011;20403;43.114;12.434;2023-01-23T08:57:20;3.97;;;2.17;;
33279;SDS011;20403;43.114;12.434;2023-01-23T08:59:45;17.90;;;2.67;;
33279;SDS011;20403;43.114;12.434;2023-01-23T09:02:11;2.97;;;1.52;;
33279;SDS011;20403;43.114;12.434;2023-01-23T09:04:36;5.10;;;2.30;;
33279;SDS011;20403;43.114;12.434;2023-01-23T09:07:02;4.60;;;2.38;;
33279;SDS011;20403;43.114;12.434;2023-01-23T09:09:28;5.63;;;2.55;;
33279;SDS011;20403;43.114;12.434;2023-01-23T09:11:54;8.45;;;3.33;;
33279;SDS011;20403;43.114;12.434;2023-01-23T09:14:19;4.30;;;2.45;;
33279;SDS011;20403;43.114;12.434;2023-01-23T09:16:44;4.85;;;3.00;;
33279;SDS011;20403;43.114;12.434;2023-01-23T09:19:10;5.30;;;3.20;;
33279;SDS011;20403;43.114;12.434;2023-01-23T09:21:36;4.55;;;2.72;;
33279;SDS011;20403;43.114;12.434;2023-01-23T09:24:02;7.40;;;4.93;;
33279;SDS011;20403;43.114;12.434;2023-01-23T09:26:28;7.78;;;4.40;;
33279;SDS011;20403;43.114;12.434;2023-01-23T09:28:55;7.45;;;4.45;;
33279;SDS011;20403;43.114;12.434;2023-01-23T09:31:20;10.75;;;5.65;;
33279;SDS011;20403;43.114;12.434;2023-01-23T09:33:46;10.95;;;6.43;;
33279;SDS011;20403;43.114;12.434;2023-01-23T09:36:12;9.85;;;5.25;;
33279;SDS011;20403;43.114;12.434;2023-01-23T09:38:38;6.35;;;4.18;;
33279;SDS011;20403;43.114;12.434;2023-01-23T09:41:08;4.78;;;2.65;;
33279;SDS011;20403;43.114;12.434;2023-01-23T09:43:54;7.70;;;4.25;;
33279;SDS011;20403;43.114;12.434;2023-01-23T09:49:08;6.60;;;3.00;;
33279;SDS011;20403;43.114;12.434;2023-01-23T09:56:54;8.57;;;4.22;;
33279;SDS011;20403;43.114;12.434;2023-01-23T10:01:57;10.43;;;5.43;;
33279;SDS011;20403;43.114;12.434;2023-01-23T10:04:23;7.85;;;4.28;;
33279;SDS011;20403;43.114;12.434;2023-01-23T10:21:11;359.52;;;51.00;;
33279;SDS011;20403;43.114;12.434;2023-01-23T10:24:14;16.80;;;6.88;;
33279;SDS011;20403;43.114;12.434;2023-01-23T10:26:44;51.17;;;9.88;;
33279;SDS011;20403;43.114;12.434;2023-01-23T10:29:21;3.88;;;3.45;;
33279;SDS011;20403;43.114;12.434;2023-01-23T10:31:51;7.65;;;4.72;;
33279;SDS011;20403;43.114;12.434;2023-01-23T10:34:29;7.82;;;7.03;;
33279;SDS011;20403;43.114;12.434;2023-01-23T10:37:06;79.13;;;15.38;;
33279;SDS011;20403;43.114;12.434;2023-01-23T10:42:21;109.28;;;18.70;;
33279;SDS011;20403;43.114;12.434;2023-01-23T10:44:49;30.42;;;9.32;;
33279;SDS011;20403;43.114;12.434;2023-01-23T10:47:36;6.07;;;4.72;;
33279;SDS011;20403;43.114;12.434;2023-01-23T10:50:00;35.35;;;11.85;;
33279;SDS011;20403;43.114;12.434;2023-01-23T10:52:31;6.70;;;6.05;;
33279;SDS011;20403;43.114;12.434;2023-01-23T10:57:44;13.70;;;8.75;;
33279;SDS011;20403;43.114;12.434;2023-01-23T11:02:46;57.95;;;10.15;;
33279;SDS011;20403;43.114;12.434;2023-01-23T11:08:20;280.38;;;25.27;;
33279;SDS011;20403;43.114;12.434;2023-01-23T11:10:46;76.00;;;16.13;;
33279;SDS011;20403;43.114;12.434;2023-01-23T11:13:20;78.30;;;19.75;;
33279;SDS011;20403;43.114;12.434;2023-01-23T11:15:50;19.85;;;8.20;;
33279;SDS011;20403;43.114;12.434;2023-01-23T11:18:27;57.08;;;9.73;;
33279;SDS011;20403;43.114;12.434;2023-01-23T11:20:59;26.30;;;7.03;;
33279;SDS011;20403;43.114;12.434;2023-01-23T11:23:25;35.45;;;14.40;;
33279;SDS011;20403;43.114;12.434;2023-01-23T11:25:52;44.42;;;9.30;;
33279;SDS011;20403;43.114;12.434;2023-01-23T11:28:25;28.67;;;8.88;;
33279;SDS011;20403;43.114;12.434;2023-01-23T11:31:05;42.42;;;13.68;;
33279;SDS011;20403;43.114;12.434;2023-01-23T11:42:12;87.97;;;16.90;;
33279;SDS011;20403;43.114;12.434;2023-01-23T11:44:38;55.80;;;11.60;;
33279;SDS011;20403;43.114;12.434;2023-01-23T12:08:42;120.93;;;20.33;;
33279;SDS011;20403;43.114;12.434;2023-01-23T12:11:13;50.88;;;12.63;;
33279;SDS011;20403;43.114;12.434;2023-01-23T12:16:31;72.75;;;23.67;;
33279;SDS011;20403;43.114;12.434;2023-01-23T12:21:36;29.38;;;10.55;;
33279;SDS011;20403;43.114;12.434;2023-01-23T12:30:07;44.22;;;13.15;;
33279;SDS011;20403;43.114;12.434;2023-01-23T12:32:40;24.90;;;6.60;;
33279;SDS011;20403;43.114;12.434;2023-01-23T12:35:26;31.05;;;10.52;;
33279;SDS011;20403;43.114;12.434;2023-01-23T12:43:06;45.75;;;12.82;;
33279;SDS011;20403;43.114;12.434;2023-01-23T12:45:38;25.92;;;11.70;;
33279;SDS011;20403;43.114;12.434;2023-01-23T12:48:24;10.90;;;7.32;;
33279;SDS011;20403;43.114;12.434;2023-01-23T12:53:20;12.23;;;6.03;;
33279;SDS011;20403;43.114;12.434;2023-01-23T12:58:19;23.08;;;8.25;;
33279;SDS011;20403;43.114;12.434;2023-01-23T13:06:23;24.48;;;5.85;;
33279;SDS011;20403;43.114;12.434;2023-01-23T13:09:06;3.78;;;3.42;;
33279;SDS011;20403;43.114;12.434;2023-01-23T13:14:43;4.65;;;3.70;;
33279;SDS011;20403;43.114;12.434;2023-01-23T13:19:54;7.07;;;4.95;;
33279;SDS011;20403;43.114;12.434;2023-01-23T13:25:45;18.42;;;10.43;;
33279;SDS011;20403;43.114;12.434;2023-01-23T13:28:31;27.17;;;14.98;;
33279;SDS011;20403;43.114;12.434;2023-01-23T13:31:02;54.38;;;30.45;;
33279;SDS011;20403;43.114;12.434;2023-01-23T13:35:54;21.27;;;14.00;;
33279;SDS011;20403;43.114;12.434;2023-01-23T13:48:51;20.67;;;14.10;;
33279;SDS011;20403;43.114;12.434;2023-01-23T13:51:46;24.10;;;15.63;;
33279;SDS011;20403;43.114;12.434;2023-01-23T13:54:13;15.07;;;9.73;;
33279;SDS011;20403;43.114;12.434;2023-01-23T13:57:02;15.60;;;10.55;;
33279;SDS011;20403;43.114;12.434;2023-01-23T13:59:31;14.73;;;8.15;;
33279;SDS011;20403;43.114;12.434;2023-01-23T14:02:16;10.32;;;7.22;;
33279;SDS011;20403;43.114;12.434;2023-01-23T14:05:16;8.85;;;5.82;;
33279;SDS011;20403;43.114;12.434;2023-01-23T14:07:50;13.82;;;6.10;;
33279;SDS011;20403;43.114;12.434;2023-01-23T14:10:33;14.38;;;6.93;;
33279;SDS011;20403;43.114;12.434;2023-01-23T14:15:35;12.48;;;7.18;;
33279;SDS011;20403;43.114;12.434;2023-01-23T14:20:58;18.77;;;12.55;;
33279;SDS011;20403;43.114;12.434;2023-01-23T14:23:26;16.42;;;11.55;;
33279;SDS011;20403;43.114;12.434;2023-01-23T14:25:55;18.20;;;10.90;;
33279;SDS011;20403;43.114;12.434;2023-01-23T14:28:21;22.50;;;9.32;;
33279;SDS011;20403;43.114;12.434;2023-01-23T14:30:57;18.25;;;10.45;;
33279;SDS011;20403;43.114;12.434;2023-01-23T14:33:24;16.50;;;10.52;;
33279;SDS011;20403;43.114;12.434;2023-01-23T14:35:51;15.00;;;9.27;;
33279;SDS011;20403;43.114;12.434;2023-01-23T14:38:21;13.98;;;8.10;;
33279;SDS011;20403;43.114;12.434;2023-01-23T14:40:52;22.63;;;10.80;;
33279;SDS011;20403;43.114;12.434;2023-01-23T14:43:24;21.23;;;12.95;;
33279;SDS011;20403;43.114;12.434;2023-01-23T14:45:59;19.90;;;12.82;;
33279;SDS011;20403;43.114;12.434;2023-01-23T14:48:40;25.10;;;13.43;;
33279;SDS011;20403;43.114;12.434;2023-01-23T14:51:29;14.27;;;9.45;;
33279;SDS011;20403;43.114;12.434;2023-01-23T14:54:01;21.98;;;8.13;;
33279;SDS011;20403;43.114;12.434;2023-01-23T14:56:40;11.02;;;8.00;;
33279;SDS011;20403;43.114;12.434;2023-01-23T14:59:14;19.15;;;10.07;;
33279;SDS011;20403;43.114;12.434;2023-01-23T15:01:57;18.10;;;8.88;;
33279;SDS011;20403;43.114;12.434;2023-01-23T15:04:25;24.05;;;10.85;;
33279;SDS011;20403;43.114;12.434;2023-01-23T15:06:55;28.77;;;10.57;;
33279;SDS011;20403;43.114;12.434;2023-01-23T15:09:32;16.23;;;10.98;;
33279;SDS011;20403;43.114;12.434;2023-01-23T15:12:06;21.80;;;9.68;;
33279;SDS011;20403;43.114;12.434;2023-01-23T15:14:39;21.00;;;12.75;;
33279;SDS011;20403;43.114;12.434;2023-01-23T15:17:05;15.90;;;10.90;;
33279;SDS011;20403;43.114;12.434;2023-01-23T15:19:37;33.13;;;12.65;;
33279;SDS011;20403;43.114;12.434;2023-01-23T15:22:46;14.65;;;10.40;;
33279;SDS011;20403;43.114;12.434;2023-01-23T15:24:54;35.28;;;12.52;;
33279;SDS011;20403;43.114;12.434;2023-01-23T15:33:04;33.60;;;12.23;;
33279;SDS011;20403;43.114;12.434;2023-01-23T15:36:00;34.03;;;13.00;;
33279;SDS011;20403;43.114;12.434;2023-01-23T15:38:30;18.27;;;11.55;;
33279;SDS011;20403;43.114;12.434;2023-01-23T15:40:56;21.45;;;12.68;;
33279;SDS011;20403;43.114;12.434;2023-01-23T15:43:22;19.17;;;11.30;;
33279;SDS011;20403;43.114;12.434;2023-01-23T15:45:47;16.23;;;10.25;;
33279;SDS011;20403;43.114;12.434;2023-01-23T15:48:13;22.33;;;13.45;;
33279;SDS011;20403;43.114;12.434;2023-01-23T15:50:38;23.23;;;14.98;;
33279;SDS011;20403;43.114;12.434;2023-01-23T15:53:09;18.60;;;12.75;;
33279;SDS011;20403;43.114;12.434;2023-01-23T15:55:38;27.13;;;16.80;;
33279;SDS011;20403;43.114;12.434;2023-01-23T15:58:04;45.78;;;18.50;;
33279;SDS011;20403;43.114;12.434;2023-01-23T16:00:29;27.02;;;15.57;;
33279;SDS011;20403;43.114;12.434;2023-01-23T16:02:56;29.67;;;19.00;;
33279;SDS011;20403;43.114;12.434;2023-01-23T16:05:26;21.90;;;14.93;;
33279;SDS011;20403;43.114;12.434;2023-01-23T16:07:54;18.20;;;11.93;;
33279;SDS011;20403;43.114;12.434;2023-01-23T16:10:25;15.23;;;10.63;;
33279;SDS011;20403;43.114;12.434;2023-01-23T16:12:53;15.52;;;10.63;;
33279;SDS011;20403;43.114;12.434;2023-01-23T16:17:49;20.23;;;13.20;;
33279;SDS011;20403;43.114;12.434;2023-01-23T16:20:16;16.63;;;10.02;;
33279;SDS011;20403;43.114;12.434;2023-01-23T16:22:51;35.00;;;11.75;;
33279;SDS011;20403;43.114;12.434;2023-01-23T16:25:21;16.23;;;11.13;;
33279;SDS011;20403;43.114;12.434;2023-01-23T16:27:51;17.08;;;12.07;;
33279;SDS011;20403;43.114;12.434;2023-01-23T16:30:17;14.73;;;8.80;;
33279;SDS011;20403;43.114;12.434;2023-01-23T16:32:44;23.10;;;13.18;;
33279;SDS011;20403;43.114;12.434;2023-01-23T16:35:10;27.05;;;14.48;;
33279;SDS011;20403;43.114;12.434;2023-01-23T16:37:38;22.13;;;13.07;;
33279;SDS011;20403;43.114;12.434;2023-01-23T16:40:13;24.58;;;14.90;;
33279;SDS011;20403;43.114;12.434;2023-01-23T16:42:42;27.90;;;10.93;;
33279;SDS011;20403;43.114;12.434;2023-01-23T16:45:13;19.92;;;11.63;;
33279;SDS011;20403;43.114;12.434;2023-01-23T16:47:45;15.15;;;9.27;;
33279;SDS011;20403;43.114;12.434;2023-01-23T16:50:15;58.92;;;25.67;;
33279;SDS011;20403;43.114;12.434;2023-01-23T16:52:43;45.83;;;23.73;;
33279;SDS011;20403;43.114;12.434;2023-01-23T16:55:18;22.38;;;13.50;;
33279;SDS011;20403;43.114;12.434;2023-01-23T16:57:47;30.90;;;11.48;;